createdAt,value
2022-09-21T00:00:32.980Z,20.29
2022-09-21T00:01:33.012Z,20.28
2022-09-21T00:02:32.960Z,20.29
2022-09-21T00:03:32.905Z,20.29
2022-09-21T00:04:32.893Z,20.29
2022-09-21T00:05:32.882Z,20.28
2022-09-21T00:06:32.891Z,20.29
2022-09-21T00:07:32.864Z,20.28
2022-09-21T00:08:32.850Z,20.29
2022-09-21T00:09:32.839Z,20.28
2022-09-21T00:10:32.838Z,20.29
2022-09-21T00:11:32.845Z,20.28
2022-09-21T00:12:32.825Z,20.28
2022-09-21T00:13:32.796Z,20.29
2022-09-21T00:14:32.806Z,20.29
2022-09-21T00:15:32.775Z,20.29
2022-09-21T00:16:32.793Z,20.28
2022-09-21T00:17:32.756Z,20.26
2022-09-21T00:18:32.892Z,20.28
2022-09-21T00:19:32.753Z,20.29
2022-09-21T00:20:32.721Z,20.29
2022-09-21T00:21:32.713Z,20.28
2022-09-21T00:22:32.701Z,20.28
2022-09-21T00:23:32.692Z,20.29
2022-09-21T00:24:32.698Z,20.29
2022-09-21T00:25:32.668Z,20.28
2022-09-21T00:26:32.657Z,20.29
2022-09-21T00:27:32.647Z,20.29
2022-09-21T00:28:32.635Z,20.28
2022-09-21T00:29:32.648Z,20.29
2022-09-21T00:30:32.614Z,20.28
2022-09-21T00:31:32.670Z,20.29
2022-09-21T00:32:32.595Z,20.29
2022-09-21T00:33:32.582Z,20.29
2022-09-21T00:34:32.624Z,20.29
2022-09-21T00:35:32.561Z,20.28
2022-09-21T00:36:32.548Z,20.28
2022-09-21T00:37:32.540Z,20.28
2022-09-21T00:38:32.526Z,20.28
2022-09-21T00:39:32.519Z,20.28
2022-09-21T00:40:32.583Z,20.26
2022-09-21T00:41:32.497Z,20.26
2022-09-21T00:42:32.483Z,20.28
2022-09-21T00:43:32.477Z,20.28
2022-09-21T00:44:32.481Z,20.28
2022-09-21T00:45:32.585Z,20.24
2022-09-21T00:46:32.443Z,20.28
2022-09-21T00:47:32.436Z,20.28
2022-09-21T00:48:32.439Z,20.28
2022-09-21T00:49:32.411Z,20.26
2022-09-21T00:50:32.419Z,20.28
2022-09-21T00:51:32.386Z,20.28
2022-09-21T00:52:32.375Z,20.26
2022-09-21T00:53:32.386Z,20.28
2022-09-21T00:54:32.353Z,20.28
2022-09-21T00:55:32.349Z,20.26
2022-09-21T00:56:32.331Z,20.26
2022-09-21T00:57:32.341Z,20.28
2022-09-21T00:58:32.309Z,20.28
2022-09-21T00:59:32.300Z,20.28
2022-09-21T01:00:32.294Z,20.26
2022-09-21T01:01:32.284Z,20.26
2022-09-21T01:02:32.289Z,20.26
2022-09-21T01:03:32.255Z,20.28
2022-09-21T01:04:32.243Z,20.28
2022-09-21T01:05:32.233Z,20.26
2022-09-21T01:06:32.299Z,20.26
2022-09-21T01:07:32.232Z,20.26
2022-09-21T01:08:32.202Z,20.26
2022-09-21T01:09:32.191Z,20.28
2022-09-21T01:10:32.196Z,20.26
2022-09-21T01:11:32.168Z,20.26
2022-09-21T01:12:32.158Z,20.28
2022-09-21T01:13:32.145Z,20.26
2022-09-21T01:14:32.137Z,20.26
2022-09-21T01:15:32.143Z,20.26
2022-09-21T01:16:32.144Z,20.26
2022-09-21T01:17:32.103Z,20.26
2022-09-21T01:18:32.094Z,20.26
2022-09-21T01:19:32.079Z,20.26
2022-09-21T01:20:32.088Z,20.24
2022-09-21T01:21:32.057Z,20.26
2022-09-21T01:22:32.071Z,20.26
2022-09-21T01:23:32.035Z,20.26
2022-09-21T01:24:32.025Z,20.26
2022-09-21T01:25:32.034Z,20.24
2022-09-21T01:26:32.021Z,20.26
2022-09-21T01:27:31.991Z,20.26
2022-09-21T01:28:31.981Z,20.26
2022-09-21T01:29:31.972Z,20.24
2022-09-21T01:30:31.963Z,20.24
2022-09-21T01:31:32.042Z,20.26
2022-09-21T01:32:31.939Z,20.26
2022-09-21T01:33:31.929Z,20.26
2022-09-21T01:34:31.920Z,20.26
2022-09-21T01:35:31.908Z,20.26
2022-09-21T01:36:31.927Z,20.26
2022-09-21T01:37:31.884Z,20.26
2022-09-21T01:38:31.928Z,20.26
2022-09-21T01:39:31.862Z,20.26
2022-09-21T01:40:35.307Z,20.28
2022-09-21T01:41:31.839Z,20.26
2022-09-21T01:42:31.851Z,20.24
2022-09-21T01:43:31.818Z,20.26
2022-09-21T01:44:31.811Z,20.26
2022-09-21T01:45:31.873Z,20.26
2022-09-21T01:46:31.785Z,20.23
2022-09-21T01:47:31.776Z,20.26
2022-09-21T01:48:31.764Z,20.23
2022-09-21T01:49:31.774Z,20.26
2022-09-21T01:50:31.744Z,20.24
2022-09-21T01:51:31.730Z,20.26
2022-09-21T01:52:31.722Z,20.24
2022-09-21T01:53:31.710Z,20.26
2022-09-21T01:54:31.754Z,20.24
2022-09-21T01:55:31.687Z,20.24
2022-09-21T01:56:31.676Z,20.24
2022-09-21T01:57:31.669Z,20.24
2022-09-21T01:58:31.657Z,20.24
2022-09-21T01:59:31.643Z,20.26
2022-09-21T02:00:31.685Z,20.24
2022-09-21T02:01:31.639Z,20.26
2022-09-21T02:02:31.613Z,20.24
2022-09-21T02:03:31.602Z,20.24
2022-09-21T02:04:31.588Z,20.26
2022-09-21T02:05:31.579Z,20.26
2022-09-21T02:06:31.599Z,20.23
2022-09-21T02:07:31.555Z,20.24
2022-09-21T02:08:31.546Z,20.24
2022-09-21T02:09:31.534Z,20.23
2022-09-21T02:10:31.548Z,20.23
2022-09-21T02:11:31.510Z,20.24
2022-09-21T02:12:31.520Z,20.24
2022-09-21T02:13:31.489Z,20.24
2022-09-21T02:14:31.483Z,20.24
2022-09-21T02:15:31.468Z,20.23
2022-09-21T02:16:31.526Z,20.26
2022-09-21T02:17:31.446Z,20.23
2022-09-21T02:18:31.438Z,20.23
2022-09-21T02:19:31.426Z,20.23
2022-09-21T02:20:31.439Z,20.23
2022-09-21T02:21:31.594Z,20.24
2022-09-21T02:22:31.394Z,20.23
2022-09-21T02:23:31.381Z,20.24
2022-09-21T02:24:31.373Z,20.24
2022-09-21T02:25:31.359Z,20.23
2022-09-21T02:26:31.374Z,20.24
2022-09-21T02:27:31.376Z,20.24
2022-09-21T02:28:31.329Z,20.24
2022-09-21T02:29:31.317Z,20.24
2022-09-21T02:30:31.311Z,20.23
2022-09-21T02:31:31.342Z,20.24
2022-09-21T02:32:31.290Z,20.23
2022-09-21T02:33:31.296Z,20.23
2022-09-21T02:34:31.265Z,20.24
2022-09-21T02:35:31.253Z,20.23
2022-09-21T02:36:31.242Z,20.23
2022-09-21T02:37:31.234Z,20.23
2022-09-21T02:38:31.244Z,20.24
2022-09-21T02:39:31.209Z,20.23
2022-09-21T02:40:31.216Z,20.23
2022-09-21T02:41:31.187Z,20.21
2022-09-21T02:42:31.200Z,20.23
2022-09-21T02:43:31.188Z,20.23
2022-09-21T02:44:31.155Z,20.23
2022-09-21T02:45:31.144Z,20.23
2022-09-21T02:46:31.215Z,20.23
2022-09-21T02:47:31.122Z,20.23
2022-09-21T02:48:31.111Z,20.23
2022-09-21T02:49:31.120Z,20.24
2022-09-21T02:50:31.090Z,20.21
2022-09-21T02:51:31.081Z,20.24
2022-09-21T02:52:31.087Z,20.21
2022-09-21T02:53:31.057Z,20.23
2022-09-21T02:54:31.049Z,20.23
2022-09-21T02:55:31.035Z,20.24
2022-09-21T02:56:31.024Z,20.24
2022-09-21T02:57:31.033Z,20.24
2022-09-21T02:58:31.146Z,20.23
2022-09-21T02:59:30.991Z,20.23
2022-09-21T03:00:31.040Z,20.21
2022-09-21T03:01:31.013Z,20.23
2022-09-21T03:02:30.983Z,20.23
2022-09-21T03:03:30.949Z,20.23
2022-09-21T03:04:30.959Z,20.23
2022-09-21T03:05:30.928Z,20.21
2022-09-21T03:06:30.918Z,20.21
2022-09-21T03:07:30.907Z,20.23
2022-09-21T03:08:30.926Z,20.21
2022-09-21T03:09:30.885Z,20.23
2022-09-21T03:10:30.879Z,20.23
2022-09-21T03:11:30.866Z,20.23
2022-09-21T03:12:30.854Z,20.21
2022-09-21T03:13:30.865Z,20.21
2022-09-21T03:14:30.859Z,20.21
2022-09-21T03:15:30.822Z,20.23
2022-09-21T03:16:30.814Z,20.21
2022-09-21T03:17:30.801Z,20.21
2022-09-21T03:18:30.814Z,20.23
2022-09-21T03:19:30.801Z,20.23
2022-09-21T03:20:30.770Z,20.23
2022-09-21T03:21:30.758Z,20.21
2022-09-21T03:22:30.748Z,20.21
2022-09-21T03:23:30.739Z,20.20
2022-09-21T03:24:30.749Z,20.21
2022-09-21T03:25:30.718Z,20.21
2022-09-21T03:26:30.708Z,20.21
2022-09-21T03:27:30.696Z,20.21
2022-09-21T03:28:30.686Z,20.23
2022-09-21T03:29:30.694Z,20.21
2022-09-21T03:30:30.687Z,20.21
2022-09-21T03:31:30.738Z,20.23
2022-09-21T03:32:30.663Z,20.21
2022-09-21T03:33:30.629Z,20.23
2022-09-21T03:34:30.620Z,20.21
2022-09-21T03:35:30.609Z,20.20
2022-09-21T03:36:30.601Z,20.23
2022-09-21T03:37:30.606Z,20.20
2022-09-21T03:38:30.577Z,20.20
2022-09-21T03:39:30.567Z,20.21
2022-09-21T03:40:30.607Z,20.23
2022-09-21T03:41:30.545Z,20.21
2022-09-21T03:42:30.566Z,20.21
2022-09-21T03:43:30.522Z,20.20
2022-09-21T03:44:30.514Z,20.21
2022-09-21T03:45:30.504Z,20.21
2022-09-21T03:46:30.543Z,20.21
2022-09-21T03:47:30.480Z,20.21
2022-09-21T03:48:30.490Z,20.23
2022-09-21T03:49:30.479Z,20.20
2022-09-21T03:50:30.471Z,20.21
2022-09-21T03:51:30.475Z,20.20
2022-09-21T03:52:30.429Z,20.20
2022-09-21T03:53:30.420Z,20.21
2022-09-21T03:54:30.408Z,20.20
2022-09-21T03:55:30.393Z,20.21
2022-09-21T03:56:30.403Z,20.21
2022-09-21T03:57:30.372Z,20.23
2022-09-21T03:58:30.385Z,20.21
2022-09-21T03:59:30.351Z,20.21
2022-09-21T04:00:30.347Z,20.20
2022-09-21T04:01:30.415Z,20.20
2022-09-21T04:02:30.422Z,20.21
2022-09-21T04:03:30.310Z,20.20
2022-09-21T04:04:30.319Z,20.21
2022-09-21T04:05:30.293Z,20.21
2022-09-21T04:06:30.276Z,20.20
2022-09-21T04:07:30.264Z,20.20
2022-09-21T04:08:30.276Z,20.20
2022-09-21T04:09:30.243Z,20.20
2022-09-21T04:10:30.237Z,20.20
2022-09-21T04:11:30.227Z,20.20
2022-09-21T04:12:30.215Z,20.21
2022-09-21T04:13:30.221Z,20.20
2022-09-21T04:14:30.209Z,20.21
2022-09-21T04:15:30.297Z,20.18
2022-09-21T04:16:30.170Z,20.20
2022-09-21T04:17:30.162Z,20.20
2022-09-21T04:18:30.185Z,20.20
2022-09-21T04:19:30.163Z,20.20
2022-09-21T04:20:30.145Z,20.20
2022-09-21T04:21:30.119Z,20.20
2022-09-21T04:22:30.106Z,20.20
2022-09-21T04:23:30.099Z,20.20
2022-09-21T04:24:30.086Z,20.20
2022-09-21T04:25:30.096Z,20.20
2022-09-21T04:26:30.067Z,20.20
2022-09-21T04:27:30.054Z,20.20
2022-09-21T04:28:30.043Z,20.20
2022-09-21T04:29:30.035Z,20.20
2022-09-21T04:30:32.154Z,20.18
2022-09-21T04:31:31.082Z,20.20
2022-09-21T04:32:30.003Z,20.20
2022-09-21T04:33:29.998Z,20.20
2022-09-21T04:34:30.089Z,20.20
2022-09-21T04:35:29.971Z,20.20
2022-09-21T04:36:34.363Z,20.20
2022-09-21T04:37:30.947Z,20.20
2022-09-21T04:38:29.938Z,20.21
2022-09-21T04:39:29.927Z,20.20
2022-09-21T04:40:29.964Z,20.20
2022-09-21T04:41:29.939Z,20.20
2022-09-21T04:42:29.896Z,20.20
2022-09-21T04:43:29.887Z,20.20
2022-09-21T04:44:29.875Z,20.20
2022-09-21T04:45:29.864Z,20.18
2022-09-21T04:46:29.878Z,20.18
2022-09-21T04:47:29.862Z,20.20
2022-09-21T04:48:29.849Z,20.18
2022-09-21T04:49:29.823Z,20.18
2022-09-21T04:50:29.850Z,20.20
2022-09-21T04:51:29.802Z,20.18
2022-09-21T04:52:29.789Z,20.18
2022-09-21T04:53:29.781Z,20.20
2022-09-21T04:54:29.787Z,20.20
2022-09-21T04:55:29.760Z,20.18
2022-09-21T04:56:29.747Z,20.18
2022-09-21T04:57:29.737Z,20.18
2022-09-21T04:58:29.726Z,20.20
2022-09-21T04:59:29.734Z,20.18
2022-09-21T05:00:29.705Z,20.20
2022-09-21T05:01:29.720Z,20.18
2022-09-21T05:02:29.683Z,20.20
2022-09-21T05:03:29.709Z,20.18
2022-09-21T05:04:29.662Z,20.18
2022-09-21T05:05:29.657Z,20.17
2022-09-21T05:06:29.682Z,20.18
2022-09-21T05:07:29.633Z,20.17
2022-09-21T05:08:29.620Z,20.18
2022-09-21T05:09:29.609Z,20.18
2022-09-21T05:10:29.601Z,20.18
2022-09-21T05:11:29.609Z,20.20
2022-09-21T05:12:29.578Z,20.18
2022-09-21T05:13:29.570Z,20.18
2022-09-21T05:14:29.557Z,20.18
2022-09-21T05:15:29.599Z,20.18
2022-09-21T05:16:29.555Z,20.20
2022-09-21T05:17:29.529Z,20.18
2022-09-21T05:18:29.513Z,20.18
2022-09-21T05:19:29.520Z,20.20
2022-09-21T05:20:29.490Z,20.17
2022-09-21T05:21:29.499Z,20.18
2022-09-21T05:22:29.490Z,20.18
2022-09-21T05:23:29.461Z,20.17
2022-09-21T05:24:29.449Z,20.18
2022-09-21T05:25:29.457Z,20.18
2022-09-21T05:26:29.426Z,20.18
2022-09-21T05:27:29.418Z,20.18
2022-09-21T05:28:29.412Z,20.18
2022-09-21T05:29:29.397Z,20.18
2022-09-21T05:30:29.450Z,20.18
2022-09-21T05:31:29.430Z,20.17
2022-09-21T05:32:29.380Z,20.17
2022-09-21T05:33:29.353Z,20.18
2022-09-21T05:34:32.993Z,20.18
2022-09-21T05:35:30.331Z,20.17
2022-09-21T05:36:29.319Z,20.17
2022-09-21T05:37:29.332Z,20.18
2022-09-21T05:38:29.320Z,20.17
2022-09-21T05:39:29.287Z,20.17
2022-09-21T05:40:29.371Z,20.18
2022-09-21T05:41:29.268Z,20.17
2022-09-21T05:42:29.274Z,20.18
2022-09-21T05:43:29.264Z,20.18
2022-09-21T05:44:29.232Z,20.17
2022-09-21T05:45:29.221Z,20.18
2022-09-21T05:46:29.213Z,20.17
2022-09-21T05:47:29.202Z,20.17
2022-09-21T05:48:29.208Z,20.17
2022-09-21T05:49:29.178Z,20.17
2022-09-21T05:50:29.167Z,20.17
2022-09-21T05:51:29.156Z,20.16
2022-09-21T05:52:29.146Z,20.16
2022-09-21T05:53:29.157Z,20.17
2022-09-21T05:54:29.145Z,20.18
2022-09-21T05:55:29.131Z,20.18
2022-09-21T05:56:29.105Z,20.17
2022-09-21T05:57:30.924Z,20.17
2022-09-21T05:58:29.079Z,20.17
2022-09-21T05:59:29.073Z,20.17
2022-09-21T06:00:29.176Z,20.17
2022-09-21T06:01:29.084Z,20.17
2022-09-21T06:02:29.090Z,20.18
2022-09-21T06:03:29.028Z,20.17
2022-09-21T06:04:29.015Z,20.17
2022-09-21T06:05:29.025Z,20.17
2022-09-21T06:06:28.994Z,20.18
2022-09-21T06:07:29.005Z,20.17
2022-09-21T06:08:28.975Z,20.17
2022-09-21T06:09:28.964Z,20.17
2022-09-21T06:10:29.092Z,20.17
2022-09-21T06:11:28.942Z,20.17
2022-09-21T06:12:28.950Z,20.17
2022-09-21T06:13:28.920Z,20.17
2022-09-21T06:14:28.910Z,20.17
2022-09-21T06:15:28.899Z,20.17
2022-09-21T06:16:28.916Z,20.18
2022-09-21T06:17:28.900Z,20.17
2022-09-21T06:18:28.867Z,20.17
2022-09-21T06:19:28.859Z,20.17
2022-09-21T06:20:28.846Z,20.17
2022-09-21T06:21:28.838Z,20.17
2022-09-21T06:22:28.846Z,20.17
2022-09-21T06:23:28.814Z,20.18
2022-09-21T06:24:28.823Z,20.18
2022-09-21T06:25:28.798Z,20.17
2022-09-21T06:26:28.804Z,20.17
2022-09-21T06:27:28.798Z,20.18
2022-09-21T06:28:28.762Z,20.18
2022-09-21T06:29:28.755Z,20.18
2022-09-21T06:30:28.962Z,20.20
2022-09-21T06:31:28.734Z,20.20
2022-09-21T06:32:28.799Z,20.20
2022-09-21T06:33:28.712Z,20.20
2022-09-21T06:34:28.699Z,20.21
2022-09-21T06:35:28.708Z,20.23
2022-09-21T06:36:28.678Z,20.21
2022-09-21T06:37:28.670Z,20.23
2022-09-21T06:38:28.656Z,20.21
2022-09-21T06:39:28.646Z,20.24
2022-09-21T06:40:28.746Z,20.23
2022-09-21T06:41:28.625Z,20.21
2022-09-21T06:42:28.637Z,20.23
2022-09-21T06:43:28.602Z,20.23
2022-09-21T06:44:28.592Z,20.23
2022-09-21T06:45:28.603Z,20.24
2022-09-21T06:46:28.571Z,20.23
2022-09-21T06:47:28.562Z,20.23
2022-09-21T06:48:28.568Z,20.23
2022-09-21T06:49:28.540Z,20.23
2022-09-21T06:50:28.527Z,20.23
2022-09-21T06:51:28.520Z,20.24
2022-09-21T06:52:28.507Z,20.21
2022-09-21T06:53:28.520Z,20.23
2022-09-21T06:54:28.486Z,20.23
2022-09-21T06:55:28.475Z,20.24
2022-09-21T06:56:28.464Z,20.23
2022-09-21T06:57:28.453Z,20.23
2022-09-21T06:58:28.497Z,20.23
2022-09-21T06:59:28.431Z,20.23
2022-09-21T07:00:28.421Z,20.23
2022-09-21T07:01:28.521Z,20.24
2022-09-21T07:02:28.403Z,20.23
2022-09-21T07:03:28.394Z,20.23
2022-09-21T07:04:28.397Z,20.24
2022-09-21T07:05:28.387Z,20.24
2022-09-21T07:06:28.356Z,20.24
2022-09-21T07:07:28.347Z,20.24
2022-09-21T07:10:29.353Z,20.24
2022-09-21T07:11:28.327Z,20.24
2022-09-21T07:12:28.291Z,20.24
2022-09-21T07:13:28.284Z,20.26
2022-09-21T07:14:28.295Z,20.24
2022-09-21T07:15:28.259Z,20.26
2022-09-21T07:16:28.364Z,20.24
2022-09-21T07:17:28.240Z,20.24
2022-09-21T07:18:28.313Z,20.24
2022-09-21T07:19:28.215Z,20.24
2022-09-21T07:20:28.216Z,20.26
2022-09-21T07:21:28.215Z,20.26
2022-09-21T07:22:28.202Z,20.28
2022-09-21T07:23:28.286Z,20.26
2022-09-21T07:24:28.160Z,20.29
2022-09-21T07:25:28.162Z,20.28
2022-09-21T07:26:28.143Z,20.28
2022-09-21T07:27:28.149Z,20.29
2022-09-21T07:28:28.141Z,20.28
2022-09-21T07:29:28.107Z,20.29
2022-09-21T07:30:28.119Z,20.29
2022-09-21T07:31:28.134Z,20.29
2022-09-21T07:32:28.076Z,20.31
2022-09-21T07:33:30.715Z,20.29
2022-09-21T07:34:29.069Z,20.31
2022-09-21T07:35:28.073Z,20.29
2022-09-21T07:36:28.029Z,20.29
2022-09-21T07:37:28.017Z,20.31
2022-09-21T07:38:28.085Z,20.31
2022-09-21T07:39:27.996Z,20.29
2022-09-21T07:40:28.100Z,20.31
2022-09-21T07:41:27.995Z,20.31
2022-09-21T07:42:27.977Z,20.31
2022-09-21T07:43:27.997Z,20.31
2022-09-21T07:44:27.941Z,20.29
2022-09-21T07:45:28.025Z,20.29
2022-09-21T07:46:27.963Z,20.29
2022-09-21T07:47:27.907Z,20.29
2022-09-21T07:48:27.977Z,20.29
2022-09-21T07:49:27.888Z,20.29
2022-09-21T07:50:27.878Z,20.29
2022-09-21T07:51:27.884Z,20.28
2022-09-21T07:52:27.857Z,20.29
2022-09-21T07:53:27.861Z,20.29
2022-09-21T07:54:27.835Z,20.29
2022-09-21T07:55:27.820Z,20.31
2022-09-21T07:56:27.813Z,20.32
2022-09-21T07:57:27.798Z,20.31
2022-09-21T07:58:27.856Z,20.35
2022-09-21T07:59:27.799Z,20.36
2022-09-21T08:00:27.769Z,20.36
2022-09-21T08:01:27.915Z,20.36
2022-09-21T08:02:27.879Z,20.38
2022-09-21T08:03:27.765Z,20.38
2022-09-21T08:04:27.744Z,20.41
2022-09-21T08:05:27.712Z,20.42
2022-09-21T08:06:27.702Z,20.42
2022-09-21T08:07:27.696Z,20.43
2022-09-21T08:08:27.684Z,20.43
2022-09-21T08:09:27.690Z,20.43
2022-09-21T08:10:27.657Z,20.48
2022-09-21T08:11:27.924Z,20.47
2022-09-21T08:12:28.482Z,20.48
2022-09-21T08:13:27.624Z,20.50
2022-09-21T08:14:27.613Z,20.51
2022-09-21T08:15:47.507Z,20.51
2022-09-21T08:16:28.612Z,20.51
2022-09-21T08:17:27.602Z,20.51
2022-09-21T08:18:27.605Z,20.51
2022-09-21T08:19:27.558Z,20.52
2022-09-21T08:20:27.567Z,20.54
2022-09-21T08:21:27.536Z,20.54
2022-09-21T08:22:27.529Z,20.52
2022-09-21T08:23:27.514Z,20.55
2022-09-21T08:24:27.507Z,20.54
2022-09-21T08:25:27.513Z,20.54
2022-09-21T08:26:27.485Z,20.54
2022-09-21T08:27:27.501Z,20.57
2022-09-21T08:28:27.460Z,20.57
2022-09-21T08:29:27.453Z,20.55
2022-09-21T08:30:27.438Z,20.57
2022-09-21T08:31:27.491Z,20.57
2022-09-21T08:32:49.426Z,20.57
2022-09-21T08:33:29.537Z,20.58
2022-09-21T08:34:27.415Z,20.58
2022-09-21T08:35:27.404Z,20.58
2022-09-21T08:36:27.372Z,20.58
2022-09-21T08:37:27.361Z,20.58
2022-09-21T08:38:27.357Z,20.58
2022-09-21T08:39:27.373Z,20.58
2022-09-21T08:40:27.400Z,20.59
2022-09-21T08:41:27.317Z,20.59
2022-09-21T08:42:27.307Z,20.58
2022-09-21T08:43:27.352Z,20.59
2022-09-21T08:44:27.284Z,20.58
2022-09-21T08:45:27.295Z,20.61
2022-09-21T08:46:27.344Z,20.59
2022-09-21T08:47:27.285Z,20.59
2022-09-21T08:48:30.094Z,20.59
2022-09-21T08:49:28.229Z,20.58
2022-09-21T08:50:27.246Z,20.58
2022-09-21T08:51:27.217Z,20.59
2022-09-21T08:52:27.218Z,20.61
2022-09-21T08:53:27.191Z,20.61
2022-09-21T08:54:27.175Z,20.61
2022-09-21T08:55:27.167Z,20.62
2022-09-21T08:56:41.624Z,20.62
2022-09-21T08:57:28.179Z,20.61
2022-09-21T08:58:27.130Z,20.62
2022-09-21T08:59:27.123Z,20.64
2022-09-21T09:00:27.195Z,20.64
2022-09-21T09:01:27.221Z,20.67
2022-09-21T09:02:27.190Z,20.66
2022-09-21T09:03:27.078Z,20.66
2022-09-21T09:04:27.078Z,20.67
2022-09-21T09:05:27.076Z,20.67
2022-09-21T09:06:27.073Z,20.67
2022-09-21T09:07:27.032Z,20.67
2022-09-21T09:08:27.039Z,20.67
2022-09-21T09:09:27.011Z,20.67
2022-09-21T09:10:27.003Z,20.69
2022-09-21T09:11:26.993Z,20.69
2022-09-21T09:12:26.977Z,20.70
2022-09-21T09:13:26.990Z,20.70
2022-09-21T09:14:26.961Z,20.70
2022-09-21T09:15:26.945Z,20.70
2022-09-21T09:16:27.066Z,20.70
2022-09-21T09:17:26.927Z,20.72
2022-09-21T09:18:26.933Z,20.72
2022-09-21T09:19:26.926Z,20.72
2022-09-21T09:20:26.910Z,20.73
2022-09-21T09:21:31.254Z,20.73
2022-09-21T09:22:27.917Z,20.74
2022-09-21T09:23:26.974Z,20.73
2022-09-21T09:24:26.850Z,20.74
2022-09-21T09:25:26.859Z,20.73
2022-09-21T09:26:26.824Z,20.73
2022-09-21T09:27:26.814Z,20.74
2022-09-21T09:28:26.803Z,20.74
2022-09-21T09:29:26.796Z,20.74
2022-09-21T09:30:26.812Z,20.76
2022-09-21T09:31:26.775Z,20.73
2022-09-21T09:32:26.759Z,20.73
2022-09-21T09:33:26.753Z,20.74
2022-09-21T09:34:26.769Z,20.74
2022-09-21T09:35:26.752Z,20.74
2022-09-21T09:36:54.030Z,20.73
2022-09-21T09:37:27.705Z,20.74
2022-09-21T09:38:26.720Z,20.74
2022-09-21T09:39:26.685Z,20.73
2022-09-21T09:40:26.732Z,20.74
2022-09-21T09:41:26.661Z,20.73
2022-09-21T09:42:26.659Z,20.74
2022-09-21T09:43:26.641Z,20.73
2022-09-21T09:44:26.628Z,20.73
2022-09-21T09:45:26.617Z,20.73
2022-09-21T09:46:26.670Z,20.73
2022-09-21T09:47:26.596Z,20.73
2022-09-21T09:48:26.584Z,20.73
2022-09-21T09:49:26.579Z,20.73
2022-09-21T09:50:26.561Z,20.72
2022-09-21T09:51:26.576Z,20.73
2022-09-21T09:52:26.539Z,20.72
2022-09-21T09:53:26.533Z,20.70
2022-09-21T09:54:26.545Z,20.73
2022-09-21T09:55:26.507Z,20.72
2022-09-21T09:56:26.520Z,20.72
2022-09-21T09:57:26.488Z,20.73
2022-09-21T09:58:26.475Z,20.73
2022-09-21T09:59:26.484Z,20.73
2022-09-21T10:00:26.453Z,20.72
2022-09-21T10:01:26.487Z,20.74
2022-09-21T10:02:26.433Z,20.74
2022-09-21T10:03:26.423Z,20.74
2022-09-21T10:04:26.505Z,20.76
2022-09-21T10:05:26.424Z,20.76
2022-09-21T10:06:26.387Z,20.77
2022-09-21T10:07:26.379Z,20.74
2022-09-21T10:08:26.368Z,20.76
2022-09-21T10:09:26.356Z,20.77
2022-09-21T10:10:26.443Z,20.76
2022-09-21T10:11:26.337Z,20.77
2022-09-21T10:12:26.323Z,20.76
2022-09-21T10:13:26.311Z,20.77
2022-09-21T10:14:26.299Z,20.77
2022-09-21T10:15:26.312Z,20.77
2022-09-21T10:16:26.315Z,20.77
2022-09-21T10:17:26.270Z,20.76
2022-09-21T10:18:26.255Z,20.77
2022-09-21T10:19:26.245Z,20.79
2022-09-21T10:20:26.322Z,20.77
2022-09-21T10:21:26.291Z,20.77
2022-09-21T10:22:26.215Z,20.79
2022-09-21T10:23:26.207Z,20.79
2022-09-21T10:24:26.189Z,20.79
2022-09-21T10:25:26.184Z,20.79
2022-09-21T10:26:26.279Z,20.80
2022-09-21T10:27:26.166Z,20.79
2022-09-21T10:28:26.147Z,20.79
2022-09-21T10:29:26.143Z,20.80
2022-09-21T10:30:26.125Z,20.80
2022-09-21T10:31:26.174Z,20.82
2022-09-21T10:32:26.121Z,20.82
2022-09-21T10:33:26.091Z,20.79
2022-09-21T10:34:26.101Z,20.79
2022-09-21T10:35:26.073Z,20.79
2022-09-21T10:36:26.059Z,20.79
2022-09-21T10:37:26.048Z,20.79
2022-09-21T10:38:26.038Z,20.77
2022-09-21T10:39:26.049Z,20.79
2022-09-21T10:40:26.096Z,20.79
2022-09-21T10:41:26.007Z,20.79
2022-09-21T10:42:26.021Z,20.79
2022-09-21T10:43:27.171Z,20.77
2022-09-21T10:44:25.992Z,20.77
2022-09-21T10:45:25.965Z,20.77
2022-09-21T10:46:26.043Z,20.79
2022-09-21T10:47:25.941Z,20.79
2022-09-21T10:48:25.947Z,20.77
2022-09-21T10:49:25.919Z,20.77
2022-09-21T10:50:25.907Z,20.79
2022-09-21T10:51:25.897Z,20.79
2022-09-21T10:52:25.919Z,20.80
2022-09-21T10:53:25.876Z,20.79
2022-09-21T10:54:25.882Z,20.79
2022-09-21T10:55:25.854Z,20.79
2022-09-21T10:56:25.842Z,20.77
2022-09-21T10:57:25.846Z,20.76
2022-09-21T10:58:25.860Z,20.77
2022-09-21T10:59:25.811Z,20.77
2022-09-21T11:00:25.811Z,20.76
2022-09-21T11:01:25.841Z,20.76
2022-09-21T11:02:25.870Z,20.76
2022-09-21T11:03:25.798Z,20.76
2022-09-21T11:04:25.752Z,20.74
2022-09-21T11:05:25.743Z,20.74
2022-09-21T11:06:25.731Z,20.73
2022-09-21T11:07:25.722Z,20.72
2022-09-21T11:08:25.728Z,20.70
2022-09-21T11:09:25.701Z,20.70
2022-09-21T11:10:25.694Z,20.70
2022-09-21T11:11:25.708Z,20.69
2022-09-21T11:12:25.665Z,20.67
2022-09-21T11:13:25.657Z,20.67
2022-09-21T11:14:25.666Z,20.66
2022-09-21T11:15:25.692Z,20.67
2022-09-21T11:16:25.623Z,20.64
2022-09-21T11:17:25.637Z,20.62
2022-09-21T11:18:25.599Z,20.62
2022-09-21T11:19:25.625Z,20.64
2022-09-21T11:20:25.576Z,20.62
2022-09-21T11:21:25.567Z,20.62
2022-09-21T11:22:25.558Z,20.62
2022-09-21T11:23:25.544Z,20.61
2022-09-21T11:24:25.534Z,20.61
2022-09-21T11:25:25.553Z,20.61
2022-09-21T11:26:25.511Z,20.59
2022-09-21T11:27:25.503Z,20.59
2022-09-21T11:28:25.490Z,20.59
2022-09-21T11:30:25.493Z,20.59
2022-09-21T11:31:25.545Z,20.58
2022-09-21T11:32:25.447Z,20.58
2022-09-21T11:33:25.435Z,20.57
2022-09-21T11:34:25.424Z,20.58
2022-09-21T11:35:25.417Z,20.57
2022-09-21T11:36:25.421Z,20.57
2022-09-21T11:37:25.416Z,20.57
2022-09-21T11:38:25.381Z,20.57
2022-09-21T11:39:25.372Z,20.58
2022-09-21T11:40:25.426Z,20.57
2022-09-21T11:41:25.350Z,20.55
2022-09-21T11:42:25.367Z,20.57
2022-09-21T11:43:25.328Z,20.54
2022-09-21T11:44:25.314Z,20.55
2022-09-21T11:45:25.306Z,20.54
2022-09-21T11:46:25.402Z,20.54
2022-09-21T11:47:25.303Z,20.54
2022-09-21T11:48:25.291Z,20.54
2022-09-21T11:49:25.260Z,20.54
2022-09-21T11:50:32.532Z,20.52
2022-09-21T11:51:26.236Z,20.54
2022-09-21T11:52:25.226Z,20.54
2022-09-21T11:53:25.236Z,20.52
2022-09-21T11:54:25.204Z,20.52
2022-09-21T11:55:25.215Z,20.52
2022-09-21T11:56:25.186Z,20.52
2022-09-21T11:57:25.179Z,20.52
2022-09-21T11:58:25.162Z,20.51
2022-09-21T11:59:25.155Z,20.52
2022-09-21T12:00:25.167Z,20.52
2022-09-21T12:01:25.131Z,20.52
2022-09-21T12:02:25.452Z,20.52
2022-09-21T12:03:25.109Z,20.54
2022-09-21T12:04:25.097Z,20.52
2022-09-21T12:05:25.108Z,20.54
2022-09-21T12:06:25.096Z,20.52
2022-09-21T12:07:25.064Z,20.52
2022-09-21T12:08:25.052Z,20.54
2022-09-21T12:09:25.044Z,20.54
2022-09-21T12:10:25.030Z,20.51
2022-09-21T12:11:25.057Z,20.54
2022-09-21T12:12:25.010Z,20.54
2022-09-21T12:13:24.998Z,20.54
2022-09-21T12:14:25.071Z,20.52
2022-09-21T12:15:24.982Z,20.52
2022-09-21T12:16:25.036Z,20.54
2022-09-21T12:17:24.984Z,20.54
2022-09-21T12:18:24.966Z,20.54
2022-09-21T12:19:24.934Z,20.54
2022-09-21T12:20:24.927Z,20.54
2022-09-21T12:21:24.913Z,20.54
2022-09-21T12:22:24.946Z,20.54
2022-09-21T12:23:24.888Z,20.54
2022-09-21T12:24:27.509Z,20.54
2022-09-21T12:25:25.865Z,20.55
2022-09-21T12:26:24.854Z,20.54
2022-09-21T12:27:24.846Z,20.55
2022-09-21T12:28:24.855Z,20.55
2022-09-21T12:29:24.825Z,20.55
2022-09-21T12:30:24.900Z,20.57
2022-09-21T12:31:24.854Z,20.55
2022-09-21T12:32:24.793Z,20.58
2022-09-21T12:33:24.812Z,20.58
2022-09-21T12:34:24.795Z,20.58
2022-09-21T12:35:24.760Z,20.59
2022-09-21T12:36:24.744Z,20.59
2022-09-21T12:37:24.736Z,20.59
2022-09-21T12:38:24.750Z,20.59
2022-09-21T12:39:24.739Z,20.61
2022-09-21T12:40:24.782Z,20.61
2022-09-21T12:41:24.695Z,20.62
2022-09-21T12:42:24.684Z,20.62
2022-09-21T12:43:24.678Z,20.62
2022-09-21T12:44:24.682Z,20.64
2022-09-21T12:45:24.649Z,20.64
2022-09-21T12:46:24.728Z,20.66
2022-09-21T12:47:24.624Z,20.66
2022-09-21T12:48:24.614Z,20.66
2022-09-21T12:49:24.624Z,20.66
2022-09-21T12:50:24.650Z,20.67
2022-09-21T12:51:24.587Z,20.67
2022-09-21T12:52:24.576Z,20.69
2022-09-21T12:53:24.559Z,20.69
2022-09-21T12:54:24.550Z,20.69
2022-09-21T12:55:24.559Z,20.70